createdAt,value
2018-12-01T00:00:55.801Z,63.60
2018-12-01T00:01:55.779Z,64.60
2018-12-01T00:02:55.754Z,59.60
2018-12-01T00:03:55.732Z,62.10
2018-12-01T00:04:55.707Z,61.20
2018-12-01T00:05:55.689Z,58.80
2018-12-01T00:06:55.662Z,64.90
2018-12-01T00:07:55.637Z,62.90
2018-12-01T00:08:55.615Z,58.70
2018-12-01T00:09:55.591Z,68.70
2018-12-01T00:10:55.574Z,67.90
2018-12-01T00:11:55.541Z,71.80
2018-12-01T00:12:55.520Z,66.60
2018-12-01T00:13:55.500Z,59.20
2018-12-01T00:14:55.474Z,63.00
2018-12-01T00:15:55.452Z,55.70
2018-12-01T00:16:55.427Z,63.70
2018-12-01T00:17:55.402Z,71.40
2018-12-01T00:18:55.378Z,67.40
2018-12-01T00:19:55.355Z,68.20
2018-12-01T00:20:55.330Z,61.60
2018-12-01T00:21:55.312Z,64.30
2018-12-01T00:22:55.283Z,61.20
2018-12-01T00:23:55.261Z,68.30
2018-12-01T00:24:55.240Z,70.50
2018-12-01T00:25:55.210Z,66.60
2018-12-01T00:26:55.186Z,68.60
2018-12-01T00:27:55.167Z,68.90
2018-12-01T00:28:55.143Z,61.20
2018-12-01T00:29:55.119Z,68.50
2018-12-01T00:30:55.091Z,60.80
2018-12-01T00:31:55.067Z,65.60
2018-12-01T00:32:55.050Z,66.70
2018-12-01T00:33:55.029Z,57.40
2018-12-01T00:34:54.996Z,66.90
2018-12-01T00:35:54.978Z,66.10
2018-12-01T00:36:54.954Z,67.80
2018-12-01T00:37:54.933Z,65.90
2018-12-01T00:38:54.905Z,64.70
2018-12-01T00:39:54.884Z,68.80
2018-12-01T00:40:54.855Z,64.50
2018-12-01T00:41:54.836Z,67.80
2018-12-01T00:42:54.819Z,63.80
2018-12-01T00:43:54.786Z,63.50
2018-12-01T00:44:54.762Z,61.20
2018-12-01T00:45:54.735Z,65.40
2018-12-01T00:46:54.717Z,64.50
2018-12-01T00:47:54.698Z,66.20
2018-12-01T00:48:54.669Z,63.80
2018-12-01T00:49:54.648Z,62.80
2018-12-01T00:50:54.626Z,66.90
2018-12-01T00:51:54.598Z,63.80
2018-12-01T00:52:54.571Z,66.80
2018-12-01T00:53:54.552Z,66.70
2018-12-01T00:54:54.532Z,65.00
2018-12-01T00:55:54.504Z,60.60
2018-12-01T00:56:54.482Z,61.00
2018-12-01T00:57:54.457Z,63.50
2018-12-01T00:58:54.432Z,61.90
2018-12-01T00:59:54.408Z,64.40
2018-12-01T01:00:54.388Z,66.00
2018-12-01T01:01:54.362Z,61.10
2018-12-01T01:02:54.338Z,63.40
2018-12-01T01:03:54.314Z,60.10
2018-12-01T01:04:54.292Z,63.90
2018-12-01T01:05:54.269Z,63.80
2018-12-01T01:06:54.250Z,65.00
2018-12-01T01:07:54.241Z,62.70
2018-12-01T01:08:54.193Z,62.40
2018-12-01T01:09:54.177Z,65.40
2018-12-01T01:10:54.158Z,63.00
2018-12-01T01:11:54.127Z,64.70
2018-12-01T01:12:54.106Z,69.70
2018-12-01T01:13:54.078Z,64.70
2018-12-01T01:14:54.066Z,67.70
2018-12-01T01:15:54.032Z,64.80
2018-12-01T01:16:54.005Z,65.70
2018-12-01T01:17:53.986Z,64.30
2018-12-01T01:18:53.962Z,66.80
2018-12-01T01:19:53.937Z,67.40
2018-12-01T01:20:53.912Z,65.90
2018-12-01T01:21:53.891Z,62.10
2018-12-01T01:22:53.866Z,69.50
2018-12-01T01:23:53.845Z,65.10
2018-12-01T01:24:53.817Z,67.00
2018-12-01T01:25:53.793Z,66.70
2018-12-01T01:26:53.772Z,69.20
2018-12-01T01:27:53.750Z,63.10
2018-12-01T01:28:53.720Z,63.10
2018-12-01T01:29:53.698Z,68.90
2018-12-01T01:30:53.677Z,61.90
2018-12-01T01:31:53.651Z,63.20
2018-12-01T01:32:53.627Z,68.10
2018-12-01T01:33:53.606Z,62.30
2018-12-01T01:34:53.580Z,61.80
2018-12-01T01:35:53.557Z,63.70
2018-12-01T01:36:53.533Z,63.30
2018-12-01T01:37:53.513Z,61.30
2018-12-01T01:38:53.489Z,59.90
2018-12-01T01:39:53.467Z,59.70
2018-12-01T01:40:53.442Z,66.30
2018-12-01T01:41:53.411Z,59.50
2018-12-01T01:42:53.394Z,63.50
2018-12-01T01:43:53.368Z,69.80
2018-12-01T01:44:53.344Z,61.70
2018-12-01T01:45:53.322Z,60.50
2018-12-01T01:46:53.298Z,64.10
2018-12-01T01:47:53.276Z,63.20
2018-12-01T01:48:53.252Z,61.50
2018-12-01T01:49:53.227Z,69.90
2018-12-01T01:50:53.203Z,65.50
2018-12-01T01:51:53.177Z,62.70
2018-12-01T01:52:53.160Z,58.20
2018-12-01T01:53:53.132Z,63.50
2018-12-01T01:54:53.116Z,64.40
2018-12-01T01:55:53.088Z,62.90
2018-12-01T01:56:53.060Z,65.00
2018-12-01T01:57:53.040Z,67.90
2018-12-01T01:58:53.014Z,65.10
2018-12-01T01:59:52.990Z,66.30
2018-12-01T02:00:52.970Z,59.40
2018-12-01T02:01:52.945Z,62.50
2018-12-01T02:02:52.924Z,62.70
2018-12-01T02:03:52.894Z,61.60
2018-12-01T02:04:52.873Z,60.80
2018-12-01T02:05:52.852Z,60.30
2018-12-01T02:06:52.832Z,57.80
2018-12-01T02:07:52.808Z,62.80
2018-12-01T02:08:52.778Z,59.50
2018-12-01T02:09:52.760Z,62.70
2018-12-01T02:10:52.732Z,63.30
2018-12-01T02:11:52.717Z,60.10
2018-12-01T02:12:52.687Z,61.70
2018-12-01T02:13:52.663Z,62.60
2018-12-01T02:14:52.640Z,62.30
2018-12-01T02:15:52.614Z,64.60
2018-12-01T02:16:52.592Z,62.50
2018-12-01T02:17:52.570Z,63.30
2018-12-01T02:18:52.544Z,67.20
2018-12-01T02:19:52.522Z,60.00
2018-12-01T02:20:52.498Z,62.20
2018-12-01T02:21:52.472Z,62.00
2018-12-01T02:22:52.455Z,59.70
2018-12-01T02:23:52.426Z,62.80
2018-12-01T02:24:52.403Z,59.80
2018-12-01T02:25:52.380Z,62.70
2018-12-01T02:26:52.360Z,63.30
2018-12-01T02:27:52.335Z,61.50
2018-12-01T02:28:52.307Z,62.00
2018-12-01T02:29:52.286Z,56.70
2018-12-01T02:30:52.267Z,60.70
2018-12-01T02:31:52.238Z,60.30
2018-12-01T02:32:52.222Z,61.90
2018-12-01T02:33:52.194Z,59.80
2018-12-01T02:34:52.170Z,62.30
2018-12-01T02:35:52.143Z,60.20
2018-12-01T02:36:52.127Z,56.40
2018-12-01T02:37:52.096Z,60.10
2018-12-01T02:38:52.079Z,67.20
2018-12-01T02:39:52.048Z,63.80
2018-12-01T02:40:52.026Z,62.70
2018-12-01T02:41:52.001Z,60.20
2018-12-01T02:42:51.980Z,58.90
2018-12-01T02:43:51.952Z,61.20
2018-12-01T02:44:51.934Z,63.10
2018-12-01T02:45:51.911Z,59.00
2018-12-01T02:46:51.889Z,63.40
2018-12-01T02:47:51.866Z,65.40
2018-12-01T02:48:51.849Z,61.30
2018-12-01T02:49:51.818Z,60.80
2018-12-01T02:50:51.793Z,59.00
2018-12-01T02:51:51.769Z,63.00
2018-12-01T02:52:51.748Z,60.40
2018-12-01T02:53:51.716Z,60.80
2018-12-01T02:54:51.696Z,60.10
2018-12-01T02:55:51.672Z,62.70
2018-12-01T02:56:51.648Z,64.10
2018-12-01T02:57:51.635Z,61.90
2018-12-01T02:58:51.606Z,61.50
2018-12-01T02:59:51.580Z,58.10
2018-12-01T03:00:51.555Z,64.50
2018-12-01T03:01:51.533Z,61.10
2018-12-01T03:02:51.513Z,56.20
2018-12-01T03:03:51.483Z,60.00
2018-12-01T03:04:51.461Z,61.10
2018-12-01T03:05:51.442Z,62.90
2018-12-01T03:06:51.419Z,60.80
2018-12-01T03:07:51.397Z,58.20
2018-12-01T03:08:51.370Z,61.40
2018-12-01T03:09:51.341Z,66.20
2018-12-01T03:10:51.320Z,57.90
2018-12-01T03:11:51.299Z,55.10
2018-12-01T03:12:51.275Z,60.80
2018-12-01T03:13:51.251Z,60.50
2018-12-01T03:14:51.230Z,61.30
2018-12-01T03:15:51.201Z,62.40
2018-12-01T03:16:51.178Z,60.30
2018-12-01T03:17:51.157Z,61.10
2018-12-01T03:18:51.131Z,61.60
2018-12-01T03:19:51.113Z,67.70
2018-12-01T03:20:51.086Z,59.90
2018-12-01T03:21:51.059Z,63.00
2018-12-01T03:22:51.044Z,58.70
2018-12-01T03:23:51.013Z,60.40
2018-12-01T03:24:50.991Z,63.20
2018-12-01T03:25:50.971Z,58.90
2018-12-01T03:26:50.947Z,63.20
2018-12-01T03:27:50.919Z,59.50
2018-12-01T03:28:50.898Z,61.00
2018-12-01T03:29:50.873Z,58.50
2018-12-01T03:30:50.850Z,60.70
2018-12-01T03:31:50.826Z,61.20
2018-12-01T03:32:50.803Z,61.10
2018-12-01T03:33:50.775Z,62.90
2018-12-01T03:34:50.759Z,58.90
2018-12-01T03:35:53.988Z,59.60
2018-12-01T03:36:50.709Z,62.00
2018-12-01T03:37:50.696Z,59.10
2018-12-01T03:38:50.668Z,60.30
2018-12-01T03:39:50.638Z,61.10
2018-12-01T03:40:50.616Z,60.40
2018-12-01T03:41:50.591Z,61.30
2018-12-01T03:42:50.567Z,60.80
2018-12-01T03:43:50.545Z,60.80
2018-12-01T03:44:50.519Z,61.80
2018-12-01T03:45:50.499Z,62.90
2018-12-01T03:46:50.477Z,62.10
2018-12-01T03:47:50.453Z,57.90
2018-12-01T03:48:50.426Z,59.20
2018-12-01T03:49:50.400Z,60.60
2018-12-01T03:50:50.380Z,65.40
2018-12-01T03:51:50.355Z,65.10
2018-12-01T03:52:50.334Z,65.70
2018-12-01T03:53:50.307Z,58.80
2018-12-01T03:54:50.284Z,59.10
2018-12-01T03:55:50.261Z,58.50
2018-12-01T03:56:50.236Z,62.10
2018-12-01T03:57:50.218Z,57.60
2018-12-01T03:58:50.193Z,61.60
2018-12-01T03:59:50.165Z,63.50
2018-12-01T04:00:50.144Z,64.60
2018-12-01T04:01:50.118Z,66.60
2018-12-01T04:02:50.099Z,62.80
2018-12-01T04:03:50.071Z,65.90
2018-12-01T04:04:50.061Z,69.10
2018-12-01T04:05:50.026Z,64.90
2018-12-01T04:06:50.003Z,64.70
2018-12-01T04:07:49.978Z,65.80
2018-12-01T04:08:49.958Z,68.50
2018-12-01T04:09:49.932Z,64.60
2018-12-01T04:10:49.909Z,57.70
2018-12-01T04:11:49.886Z,68.50
2018-12-01T04:12:49.858Z,64.80
2018-12-01T04:13:49.837Z,60.30
2018-12-01T04:14:49.816Z,60.00
2018-12-01T04:15:49.791Z,62.70
2018-12-01T04:16:49.768Z,63.90
2018-12-01T04:17:49.747Z,66.10
2018-12-01T04:18:49.722Z,64.60
2018-12-01T04:19:49.694Z,65.10
2018-12-01T04:20:49.674Z,63.20
2018-12-01T04:21:49.652Z,66.20
2018-12-01T04:22:49.630Z,66.50
2018-12-01T04:23:49.600Z,68.10
2018-12-01T04:24:49.582Z,61.30
2018-12-01T04:25:49.556Z,66.70
2018-12-01T04:26:49.534Z,65.30
2018-12-01T04:27:49.509Z,63.50
2018-12-01T04:28:49.486Z,65.40
2018-12-01T04:29:49.461Z,65.30
2018-12-01T04:30:49.438Z,69.40
2018-12-01T04:31:49.417Z,63.30
2018-12-01T04:32:49.390Z,68.50
2018-12-01T04:33:49.366Z,66.60
2018-12-01T04:34:49.344Z,64.60
2018-12-01T04:35:49.324Z,62.00
2018-12-01T04:36:49.296Z,62.40
2018-12-01T04:37:49.279Z,62.70
2018-12-01T04:38:49.256Z,62.20
2018-12-01T04:39:49.226Z,63.00
2018-12-01T04:40:49.200Z,62.40
2018-12-01T04:41:49.190Z,73.10
2018-12-01T04:42:49.148Z,61.60
2018-12-01T04:43:49.131Z,65.40
2018-12-01T04:44:49.107Z,68.40
2018-12-01T04:45:49.088Z,66.10
2018-12-01T04:46:49.062Z,62.50
2018-12-01T04:47:49.037Z,63.80
2018-12-01T04:48:49.017Z,63.10
2018-12-01T04:49:48.992Z,60.40
2018-12-01T04:50:48.968Z,63.00
2018-12-01T04:51:48.946Z,65.80
2018-12-01T04:52:48.929Z,70.40
2018-12-01T04:53:48.901Z,62.30
2018-12-01T04:54:48.874Z,64.30
2018-12-01T04:55:48.852Z,67.10
2018-12-01T04:56:48.831Z,62.10
2018-12-01T04:57:48.805Z,65.40
2018-12-01T04:58:48.778Z,65.80
2018-12-01T04:59:48.755Z,62.90
2018-12-01T05:00:48.733Z,66.60
2018-12-01T05:01:48.709Z,71.10
2018-12-01T05:02:48.685Z,63.00
2018-12-01T05:03:48.664Z,64.30
2018-12-01T05:04:48.643Z,66.30
2018-12-01T05:05:48.615Z,62.00
2018-12-01T05:06:48.591Z,65.30
2018-12-01T05:07:48.571Z,61.50
2018-12-01T05:08:49.419Z,64.20
2018-12-01T05:09:48.525Z,63.90
2018-12-01T05:10:48.501Z,69.50
2018-12-01T05:11:48.481Z,65.70
2018-12-01T05:12:48.455Z,63.40
2018-12-01T05:13:48.431Z,63.10
2018-12-01T05:14:48.407Z,68.80
2018-12-01T05:15:48.377Z,63.90
2018-12-01T05:16:48.359Z,63.90
2018-12-01T05:17:48.335Z,65.20
2018-12-01T05:18:48.313Z,68.50
2018-12-01T05:19:48.285Z,67.10
2018-12-01T05:20:48.264Z,62.20
2018-12-01T05:21:48.243Z,63.70
2018-12-01T05:22:48.217Z,67.40
2018-12-01T05:23:48.191Z,67.70
2018-12-01T05:24:48.170Z,70.30
2018-12-01T05:25:48.149Z,69.80
2018-12-01T05:26:48.124Z,67.30
2018-12-01T05:27:48.096Z,70.70
2018-12-01T05:28:48.077Z,67.50
2018-12-01T05:29:48.066Z,69.80
2018-12-01T05:30:48.033Z,66.60
2018-12-01T05:31:48.009Z,63.70
2018-12-01T05:32:47.981Z,69.60
2018-12-01T05:33:47.961Z,64.10
2018-12-01T05:34:47.943Z,61.70
2018-12-01T05:35:47.913Z,67.80
2018-12-01T05:36:47.889Z,65.50
2018-12-01T05:37:47.866Z,66.80
2018-12-01T05:38:47.844Z,66.70
2018-12-01T05:39:47.823Z,68.30
2018-12-01T05:40:47.795Z,67.60
2018-12-01T05:41:47.778Z,64.50
2018-12-01T05:42:47.755Z,67.20
2018-12-01T05:43:47.808Z,70.30
2018-12-01T05:44:47.702Z,67.40
2018-12-01T05:45:47.679Z,67.50
2018-12-01T05:46:47.661Z,62.60
2018-12-01T05:47:47.630Z,64.00
2018-12-01T05:48:47.607Z,62.70
2018-12-01T05:49:47.587Z,69.60
2018-12-01T05:50:47.561Z,62.20
2018-12-01T05:51:47.536Z,62.10
2018-12-01T05:52:47.517Z,68.90
2018-12-01T05:53:47.489Z,64.20
2018-12-01T05:54:47.465Z,63.20
2018-12-01T05:55:47.444Z,61.90
2018-12-01T05:56:47.420Z,62.10
2018-12-01T05:57:47.396Z,60.80
2018-12-01T05:58:47.375Z,58.40
2018-12-01T05:59:47.347Z,65.10
2018-12-01T06:00:47.327Z,65.00
2018-12-01T06:01:47.306Z,63.80
2018-12-01T06:02:47.280Z,61.00
2018-12-01T06:03:47.253Z,65.30
2018-12-01T06:04:47.235Z,67.60
2018-12-01T06:05:47.209Z,64.10
2018-12-01T06:06:47.185Z,61.40
2018-12-01T06:07:47.166Z,61.40
2018-12-01T06:08:47.140Z,64.60
2018-12-01T06:09:47.119Z,61.20
2018-12-01T06:10:47.095Z,61.50
2018-12-01T06:11:47.070Z,62.00
2018-12-01T06:12:47.051Z,59.40
2018-12-01T06:13:47.022Z,62.90
2018-12-01T06:14:46.999Z,59.60
2018-12-01T06:15:46.976Z,61.80
2018-12-01T06:16:46.951Z,66.50
2018-12-01T06:17:46.929Z,62.40
2018-12-01T06:18:46.907Z,62.10
2018-12-01T06:19:46.880Z,60.60
2018-12-01T06:20:46.858Z,61.70
2018-12-01T06:21:46.836Z,60.20
2018-12-01T06:22:46.808Z,61.70
2018-12-01T06:23:46.789Z,59.70
2018-12-01T06:24:46.768Z,61.00
2018-12-01T06:25:46.742Z,61.00
2018-12-01T06:26:46.717Z,57.10
2018-12-01T06:27:46.688Z,61.50
2018-12-01T06:28:46.672Z,64.90
2018-12-01T06:29:46.652Z,61.90
2018-12-01T06:30:46.626Z,57.40
2018-12-01T06:31:46.596Z,58.30
2018-12-01T06:32:46.575Z,61.00
2018-12-01T06:33:46.554Z,61.60
2018-12-01T06:34:46.529Z,59.70
2018-12-01T06:35:46.507Z,59.30
2018-12-01T06:36:46.490Z,64.50
2018-12-01T06:37:46.459Z,63.50
2018-12-01T06:38:46.436Z,63.10
2018-12-01T06:39:46.415Z,60.50
2018-12-01T06:40:46.395Z,59.40
2018-12-01T06:41:46.369Z,58.10
2018-12-01T06:42:46.358Z,58.40
2018-12-01T06:43:46.319Z,60.10
2018-12-01T06:44:46.299Z,61.40
2018-12-01T06:45:46.272Z,59.00
2018-12-01T06:46:46.257Z,64.10
2018-12-01T06:47:46.224Z,57.80
2018-12-01T06:48:46.205Z,58.60
2018-12-01T06:49:46.180Z,59.80
2018-12-01T06:50:46.160Z,56.80
2018-12-01T06:51:46.133Z,58.00
2018-12-01T06:52:46.110Z,60.60
2018-12-01T06:53:46.088Z,60.50
2018-12-01T06:54:46.069Z,61.70
2018-12-01T06:55:46.043Z,58.10
2018-12-01T06:56:46.019Z,55.40
2018-12-01T06:57:45.994Z,61.30
2018-12-01T06:58:45.971Z,58.60
2018-12-01T06:59:45.944Z,56.40
2018-12-01T07:00:45.920Z,58.30
2018-12-01T07:01:45.902Z,57.10
2018-12-01T07:02:45.895Z,57.50
2018-12-01T07:03:45.854Z,62.80
2018-12-01T07:04:45.842Z,63.20
2018-12-01T07:05:45.807Z,71.50
2018-12-01T07:06:45.786Z,80.20
2018-12-01T07:07:45.765Z,73.90
2018-12-01T07:08:45.737Z,78.60
2018-12-01T07:09:45.715Z,71.70
2018-12-01T07:10:45.685Z,62.80
2018-12-01T07:11:45.671Z,63.60
2018-12-01T07:12:45.642Z,63.00
2018-12-01T07:13:45.620Z,60.90
2018-12-01T07:14:45.598Z,61.40
2018-12-01T07:15:45.572Z,60.00
2018-12-01T07:16:45.546Z,61.10
2018-12-01T07:17:45.526Z,61.00
2018-12-01T07:18:45.500Z,63.40
2018-12-01T07:19:45.485Z,59.70
2018-12-01T07:20:45.453Z,58.90
2018-12-01T07:21:45.432Z,66.10
2018-12-01T07:22:45.409Z,80.60
2018-12-01T07:23:45.388Z,68.30
2018-12-01T07:24:45.362Z,64.90
2018-12-01T07:25:45.342Z,61.00
2018-12-01T07:26:45.314Z,63.70
2018-12-01T07:27:45.290Z,60.60
2018-12-01T07:28:45.269Z,58.50
2018-12-01T07:29:45.256Z,57.90
2018-12-01T07:30:45.222Z,61.50
2018-12-01T07:31:45.196Z,57.70
2018-12-01T07:32:45.177Z,57.50
2018-12-01T07:33:45.154Z,58.90
2018-12-01T07:34:45.126Z,58.40
2018-12-01T07:35:45.102Z,57.80
2018-12-01T07:36:45.081Z,57.20
2018-12-01T07:37:45.057Z,59.20
2018-12-01T07:38:45.033Z,59.20
2018-12-01T07:39:45.014Z,58.30
2018-12-01T07:40:44.987Z,57.10
2018-12-01T07:41:44.963Z,54.10
2018-12-01T07:42:44.945Z,54.70
2018-12-01T07:43:44.919Z,55.40
2018-12-01T07:44:44.908Z,56.40
2018-12-01T07:45:44.882Z,55.40
2018-12-01T07:46:44.852Z,55.10
2018-12-01T07:47:44.822Z,59.90
2018-12-01T07:48:44.802Z,53.10
2018-12-01T07:49:44.778Z,58.20
2018-12-01T07:50:44.756Z,57.00
2018-12-01T07:51:44.733Z,54.80
2018-12-01T07:52:44.730Z,53.90
2018-12-01T07:53:44.684Z,55.70
2018-12-01T07:54:44.660Z,53.10
2018-12-01T07:55:44.642Z,53.00
2018-12-01T07:56:44.623Z,55.30
2018-12-01T07:57:44.593Z,53.90
2018-12-01T07:58:44.574Z,56.20
2018-12-01T07:59:44.545Z,54.60
2018-12-01T08:00:44.522Z,54.00
2018-12-01T08:01:44.502Z,52.60
2018-12-01T08:02:44.474Z,53.80
2018-12-01T08:03:44.467Z,50.90
2018-12-01T08:04:44.429Z,55.50
2018-12-01T08:05:44.406Z,56.20
2018-12-01T08:06:44.390Z,55.30
2018-12-01T08:07:44.361Z,54.50
2018-12-01T08:08:44.335Z,53.80
2018-12-01T08:09:44.316Z,53.20
2018-12-01T08:10:44.287Z,52.60
2018-12-01T08:11:44.271Z,54.90
2018-12-01T08:12:44.245Z,55.10
2018-12-01T08:13:44.222Z,52.60
2018-12-01T08:14:44.199Z,53.20
2018-12-01T08:15:44.184Z,52.20
2018-12-01T08:16:44.152Z,52.50
2018-12-01T08:17:44.132Z,53.40
2018-12-01T08:18:44.103Z,52.30
2018-12-01T08:19:44.080Z,53.70
2018-12-01T08:20:44.056Z,54.80
2018-12-01T08:21:44.036Z,53.50
2018-12-01T08:22:44.015Z,53.30
2018-12-01T08:23:43.988Z,50.10
2018-12-01T08:24:43.967Z,52.50
2018-12-01T08:25:43.942Z,53.20
2018-12-01T08:26:43.923Z,52.90
2018-12-01T08:27:43.901Z,51.90
2018-12-01T08:28:43.875Z,50.50
2018-12-01T08:29:43.850Z,53.10
2018-12-01T08:30:43.832Z,50.50
2018-12-01T08:31:43.800Z,49.90
2018-12-01T08:32:43.807Z,52.00
2018-12-01T08:33:43.756Z,52.30
2018-12-01T08:34:43.732Z,50.40
2018-12-01T08:35:43.710Z,50.50
2018-12-01T08:36:43.682Z,50.50
2018-12-01T08:37:43.664Z,52.00
2018-12-01T08:38:43.644Z,51.10
2018-12-01T08:39:43.620Z,52.30
2018-12-01T08:40:43.596Z,46.50
2018-12-01T08:41:43.572Z,49.90
2018-12-01T08:42:43.550Z,48.60
2018-12-01T08:43:43.522Z,52.50
2018-12-01T08:44:43.507Z,45.90
2018-12-01T08:45:43.482Z,48.60
2018-12-01T08:46:43.458Z,48.30
2018-12-01T08:47:43.430Z,49.20
2018-12-01T08:48:43.414Z,44.00
2018-12-01T08:49:44.494Z,44.50
2018-12-01T08:50:43.359Z,45.80
2018-12-01T08:51:43.340Z,49.70
2018-12-01T08:52:43.315Z,46.80
2018-12-01T08:53:43.295Z,44.00
2018-12-01T08:54:43.273Z,47.90
2018-12-01T08:55:43.246Z,47.70
2018-12-01T08:56:43.233Z,43.00
2018-12-01T08:57:43.207Z,44.40
2018-12-01T08:58:43.178Z,45.30
2018-12-01T08:59:43.151Z,46.70
2018-12-01T09:00:43.132Z,44.20
2018-12-01T09:01:43.110Z,47.00
2018-12-01T09:02:43.085Z,41.40
2018-12-01T09:03:43.068Z,44.50
2018-12-01T09:04:43.041Z,43.60
2018-12-01T09:05:43.018Z,45.10
2018-12-01T09:06:42.996Z,42.50
2018-12-01T09:07:42.970Z,43.20
2018-12-01T09:08:42.948Z,46.10
2018-12-01T09:09:42.927Z,44.70
2018-12-01T09:10:42.903Z,42.60
2018-12-01T09:11:42.877Z,39.80
2018-12-01T09:12:42.864Z,44.40
2018-12-01T09:13:42.833Z,42.20
2018-12-01T09:14:42.807Z,44.00
2018-12-01T09:15:42.791Z,41.90
2018-12-01T09:16:42.764Z,42.70
2018-12-01T09:17:42.742Z,43.40
2018-12-01T09:18:42.719Z,38.60
2018-12-01T09:19:42.696Z,39.90
2018-12-01T09:20:42.683Z,40.40
2018-12-01T09:21:42.654Z,43.70
2018-12-01T09:22:42.629Z,43.80
2018-12-01T09:23:42.601Z,44.40
2018-12-01T09:24:42.581Z,42.70
2018-12-01T09:25:42.559Z,45.00
2018-12-01T09:26:42.539Z,45.40
2018-12-01T09:27:42.508Z,44.80
2018-12-01T09:28:42.498Z,42.20
2018-12-01T09:29:42.467Z,46.10
2018-12-01T09:30:42.446Z,42.50
2018-12-01T09:31:42.421Z,44.60
2018-12-01T09:32:42.397Z,42.60
2018-12-01T09:33:42.369Z,43.30
2018-12-01T09:34:42.352Z,41.20
2018-12-01T09:35:42.334Z,45.30
2018-12-01T09:36:42.306Z,42.50
2018-12-01T09:37:42.287Z,40.70
2018-12-01T09:38:42.262Z,42.10
2018-12-01T09:39:42.234Z,44.10
2018-12-01T09:40:42.213Z,44.40
2018-12-01T09:41:42.190Z,40.00
2018-12-01T09:42:42.174Z,45.00
2018-12-01T09:43:42.143Z,41.30
2018-12-01T09:44:42.126Z,40.00
2018-12-01T09:45:42.100Z,44.50
2018-12-01T09:46:42.077Z,43.10
2018-12-01T09:47:42.051Z,46.40
2018-12-01T09:48:42.035Z,44.50
2018-12-01T09:49:42.010Z,42.80
2018-12-01T09:50:41.986Z,39.00
2018-12-01T09:51:41.962Z,40.30
2018-12-01T09:52:41.949Z,37.80
2018-12-01T09:53:41.920Z,37.90
2018-12-01T09:54:41.901Z,38.20
2018-12-01T09:55:41.873Z,40.30
2018-12-01T09:56:41.850Z,37.80
2018-12-01T09:57:41.835Z,39.60
2018-12-01T09:58:41.806Z,40.20
2018-12-01T09:59:41.779Z,41.30
2018-12-01T10:00:41.763Z,40.70
2018-12-01T10:01:41.746Z,39.00
2018-12-01T10:02:41.717Z,41.30
2018-12-01T10:03:41.692Z,41.10
2018-12-01T10:04:41.671Z,39.80
2018-12-01T10:05:41.651Z,39.20
2018-12-01T10:06:41.631Z,42.10
2018-12-01T10:07:41.603Z,39.40
2018-12-01T10:08:41.581Z,41.20
2018-12-01T10:09:41.564Z,41.80
2018-12-01T10:10:41.540Z,41.80
2018-12-01T10:11:41.518Z,42.70
2018-12-01T10:12:41.495Z,43.20
2018-12-01T10:13:41.478Z,45.90
2018-12-01T10:14:41.444Z,43.40
2018-12-01T10:15:41.425Z,43.60
2018-12-01T10:16:41.408Z,41.20
2018-12-01T10:17:41.387Z,42.00
2018-12-01T10:18:41.363Z,44.10
2018-12-01T10:19:41.343Z,48.00
2018-12-01T10:20:41.315Z,44.10
2018-12-01T10:21:41.301Z,43.80
2018-12-01T10:22:41.270Z,43.60
2018-12-01T10:23:41.256Z,42.10
2018-12-01T10:24:41.228Z,42.50
2018-12-01T10:25:41.206Z,43.00
2018-12-01T10:26:41.193Z,43.80
2018-12-01T10:27:41.160Z,42.70
2018-12-01T10:28:41.137Z,41.70
2018-12-01T10:29:41.127Z,44.40
2018-12-01T10:30:41.098Z,40.40
2018-12-01T10:31:41.072Z,41.10
2018-12-01T10:32:41.090Z,39.90
2018-12-01T10:33:41.037Z,40.70
2018-12-01T10:34:41.004Z,41.00
2018-12-01T10:35:40.982Z,40.70
2018-12-01T10:36:40.961Z,41.50
2018-12-01T10:37:40.944Z,38.80
2018-12-01T10:38:40.916Z,39.20
2018-12-01T10:39:40.895Z,40.00
2018-12-01T10:40:40.873Z,40.60
2018-12-01T10:41:40.853Z,41.00
2018-12-01T10:42:40.833Z,39.40
2018-12-01T10:43:40.812Z,39.00
2018-12-01T10:44:40.788Z,38.70
2018-12-01T10:45:40.768Z,39.10
2018-12-01T10:46:40.738Z,38.10
2018-12-01T10:47:40.723Z,42.00
2018-12-01T10:48:40.700Z,39.40
2018-12-01T10:49:40.689Z,38.80
2018-12-01T10:50:40.654Z,40.70
2018-12-01T10:51:40.636Z,40.10
2018-12-01T10:52:40.614Z,43.00
2018-12-01T10:53:40.596Z,41.10
2018-12-01T10:54:40.567Z,39.90
2018-12-01T10:55:40.547Z,40.80
2018-12-01T10:56:40.526Z,40.60
2018-12-01T10:57:40.500Z,40.00
2018-12-01T10:58:40.484Z,40.10
2018-12-01T10:59:40.461Z,37.60
2018-12-01T11:00:40.434Z,39.20
2018-12-01T11:01:40.418Z,40.90
2018-12-01T11:02:40.802Z,39.20
2018-12-01T11:03:40.374Z,37.50
2018-12-01T11:04:40.351Z,38.70
2018-12-01T11:05:40.328Z,38.70
2018-12-01T11:06:40.308Z,38.00
2018-12-01T11:07:40.293Z,37.40
2018-12-01T11:08:40.260Z,38.00
2018-12-01T11:09:40.247Z,39.10
2018-12-01T11:10:40.220Z,39.90
2018-12-01T11:11:40.209Z,39.10
2018-12-01T11:12:40.176Z,36.60
2018-12-01T11:13:40.161Z,37.00
2018-12-01T11:14:40.134Z,36.60
2018-12-01T11:15:40.114Z,35.80
2018-12-01T11:16:40.094Z,37.00
2018-12-01T11:17:40.072Z,37.40
2018-12-01T11:18:40.052Z,38.00
2018-12-01T11:19:40.034Z,39.60
2018-12-01T11:20:40.006Z,36.70
2018-12-01T11:21:39.982Z,37.50
2018-12-01T11:22:39.966Z,36.00
2018-12-01T11:23:39.946Z,35.10
2018-12-01T11:24:39.919Z,35.20
2018-12-01T11:25:39.899Z,34.80
2018-12-01T11:26:39.883Z,34.50
2018-12-01T11:27:39.871Z,36.40
2018-12-01T11:28:39.844Z,34.70
2018-12-01T11:29:39.811Z,35.50
2018-12-01T11:30:39.794Z,35.10
2018-12-01T11:31:39.774Z,34.50
2018-12-01T11:32:39.753Z,36.80
2018-12-01T11:33:39.728Z,37.30
2018-12-01T11:34:39.707Z,35.10
2018-12-01T11:35:39.687Z,34.70
2018-12-01T11:36:39.667Z,36.50
2018-12-01T11:37:39.647Z,34.70
2018-12-01T11:38:39.629Z,36.80
2018-12-01T11:39:39.615Z,37.00
2018-12-01T11:40:39.583Z,37.10
2018-12-01T11:41:39.564Z,35.90
2018-12-01T11:42:39.539Z,36.80
2018-12-01T11:43:39.517Z,37.20
2018-12-01T11:44:39.504Z,38.40
2018-12-01T11:45:39.475Z,36.40
2018-12-01T11:46:39.458Z,39.00
2018-12-01T11:47:39.437Z,38.10
2018-12-01T11:48:39.418Z,39.10
2018-12-01T11:49:39.393Z,39.30
2018-12-01T11:50:39.382Z,38.20
2018-12-01T11:51:39.350Z,39.20
2018-12-01T11:52:39.330Z,38.40
2018-12-01T11:53:39.314Z,39.80
2018-12-01T11:54:39.291Z,37.80
2018-12-01T11:55:39.273Z,38.50
2018-12-01T11:56:39.245Z,39.60
2018-12-01T11:57:39.225Z,37.80
2018-12-01T11:58:39.206Z,37.80
2018-12-01T11:59:39.181Z,36.10
2018-12-01T12:00:39.162Z,37.20
2018-12-01T12:01:39.141Z,36.80
2018-12-01T12:02:39.120Z,35.50
2018-12-01T12:03:39.095Z,35.80
2018-12-01T12:04:39.074Z,36.50
2018-12-01T12:05:39.055Z,35.60
2018-12-01T12:06:39.033Z,36.10
2018-12-01T12:07:39.013Z,35.50
2018-12-01T12:08:38.997Z,33.90
2018-12-01T12:09:38.968Z,33.00
2018-12-01T12:10:38.955Z,32.90
2018-12-01T12:11:38.933Z,34.60
2018-12-01T12:12:38.909Z,34.60
2018-12-01T12:13:38.887Z,35.40
2018-12-01T12:14:38.864Z,34.60
2018-12-01T12:15:38.843Z,35.10
2018-12-01T12:16:38.823Z,32.90
2018-12-01T12:17:38.804Z,33.60
2018-12-01T12:18:38.781Z,33.90
2018-12-01T12:19:39.589Z,33.30
2018-12-01T12:20:38.741Z,33.00
2018-12-01T12:21:38.727Z,34.10
2018-12-01T12:22:38.699Z,33.40
2018-12-01T12:23:38.675Z,34.90
2018-12-01T12:24:38.658Z,35.20
2018-12-01T12:25:38.635Z,35.70
2018-12-01T12:26:38.617Z,34.40
2018-12-01T12:27:38.595Z,35.90
2018-12-01T12:28:38.574Z,35.40
2018-12-01T12:29:38.557Z,36.40
2018-12-01T12:30:38.532Z,35.30
2018-12-01T12:31:38.519Z,35.80
2018-12-01T12:32:38.501Z,36.40
2018-12-01T12:33:38.475Z,35.10
2018-12-01T12:34:38.449Z,37.30
2018-12-01T12:35:38.431Z,36.20
2018-12-01T12:36:38.405Z,36.70
2018-12-01T12:37:38.385Z,37.50
2018-12-01T12:38:38.368Z,36.00
2018-12-01T12:39:38.349Z,36.50
2018-12-01T12:40:38.324Z,36.10
2018-12-01T12:41:38.309Z,35.20
2018-12-01T12:42:38.283Z,34.80
2018-12-01T12:43:38.263Z,34.70
2018-12-01T12:44:38.243Z,34.40
2018-12-01T12:45:38.224Z,36.00
2018-12-01T12:46:38.201Z,35.90
2018-12-01T12:47:38.180Z,32.90
2018-12-01T12:48:38.159Z,35.30
2018-12-01T12:49:38.137Z,35.00
2018-12-01T12:50:38.116Z,34.90
2018-12-01T12:51:38.102Z,35.10
2018-12-01T12:52:38.074Z,34.70